Time;durP1;ratioP1;P1;durP2;ratioP2;P2;SDS_P1;SDS_P2;PMS_P1;PMS_P2;Temp;Humidity;BMP_temperature;BMP_pressure;BME280_temperature;BME280_humidity;BME280_pressure;Samples;Min_cycle;Max_cycle;Signal;HPM_P1;HPM_P2
2024/01/20 00:02:16;;;;;;;4.07;3.77;;;;;-2.90;96864.00;;;;5057517;28;20214;-61
2024/01/20 00:04:44;;;;;;;4.30;3.90;;;;;-3.10;96855.00;;;;5056277;28;20196;-62
2024/01/20 00:07:11;;;;;;;3.77;2.73;;;;;-3.00;96858.00;;;;5054794;28;20199;-60
2024/01/20 00:09:40;;;;;;;3.47;2.93;;;;;-3.00;96850.00;;;;5058645;28;20588;-61
2024/01/20 00:12:08;;;;;;;5.90;3.63;;;;;-3.10;96864.00;;;;5056763;28;20232;-62
2024/01/20 00:14:36;;;;;;;4.53;3.63;;;;;-3.10;96852.00;;;;5059155;28;20188;-61
2024/01/20 00:17:05;;;;;;;4.93;3.03;;;;;-3.10;96852.00;;;;5057108;28;20199;-61
2024/01/20 00:19:32;;;;;;;3.47;3.17;;;;;-3.10;96848.00;;;;5056163;28;20191;-61
2024/01/20 00:22:00;;;;;;;3.27;3.03;;;;;-3.00;96858.00;;;;5057524;28;20265;-62
2024/01/20 00:24:27;;;;;;;3.23;2.77;;;;;-3.00;96854.00;;;;5055863;28;20199;-61
2024/01/20 00:26:55;;;;;;;3.33;2.43;;;;;-3.30;96850.00;;;;5056992;28;20690;-63
2024/01/20 00:29:22;;;;;;;4.53;3.13;;;;;-3.80;96848.00;;;;5057411;28;20536;-61
2024/01/20 00:31:50;;;;;;;3.43;3.17;;;;;-3.40;96852.00;;;;5056986;28;20216;-59
2024/01/20 00:34:19;;;;;;;5.40;3.63;;;;;-3.40;96861.00;;;;5057207;28;20195;-60
2024/01/20 00:36:47;;;;;;;4.90;3.23;;;;;-3.30;96868.00;;;;5058879;28;20281;-60
2024/01/20 00:39:15;;;;;;;2.70;2.50;;;;;-3.10;96860.00;;;;5058680;28;20200;-60
2024/01/20 00:41:43;;;;;;;2.93;2.73;;;;;-3.30;96853.00;;;;5056674;28;20218;-60
2024/01/20 00:44:10;;;;;;;3.00;2.80;;;;;-3.30;96860.00;;;;5055408;28;20190;-60
2024/01/20 00:46:37;;;;;;;3.20;2.93;;;;;-3.30;96856.00;;;;5056259;28;20203;-61
2024/01/20 00:49:05;;;;;;;3.67;3.33;;;;;-3.30;96862.00;;;;5057702;28;20208;-60
2024/01/20 00:51:34;;;;;;;2.80;2.30;;;;;-3.30;96862.00;;;;5056954;28;20190;-60
2024/01/20 00:54:01;;;;;;;4.10;3.70;;;;;-3.30;96861.00;;;;5056314;28;20209;-59
2024/01/20 00:56:29;;;;;;;3.23;2.97;;;;;-3.60;96868.00;;;;5055610;28;20201;-60
2024/01/20 00:58:57;;;;;;;4.17;3.03;;;;;-3.40;96860.00;;;;5056652;28;20195;-60
2024/01/20 01:01:25;;;;;;;2.50;2.33;;;;;-3.60;96851.00;;;;5057093;28;20598;-60
2024/01/20 01:03:56;;;;;;;3.03;2.83;;;;;-3.60;96854.00;;;;5057580;28;20292;-59
2024/01/20 01:06:27;;;;;;;3.37;3.10;;;;;-3.60;96852.00;;;;5058297;28;20254;-61
2024/01/20 01:08:55;;;;;;;4.33;2.53;;;;;-4.00;96852.00;;;;5060017;28;20205;-59
2024/01/20 01:11:23;;;;;;;3.13;2.83;;;;;-4.30;96864.00;;;;5054977;28;20186;-59
2024/01/20 01:13:50;;;;;;;2.83;2.40;;;;;-4.10;96871.00;;;;5058427;28;20252;-59
2024/01/20 01:16:22;;;;;;;6.10;5.57;;;;;-3.90;96874.00;;;;5056694;28;20195;-60
2024/01/20 01:18:52;;;;;;;2.33;1.83;;;;;-3.80;96883.00;;;;5053181;28;20210;-60
2024/01/20 01:21:20;;;;;;;3.30;3.10;;;;;-3.80;96886.00;;;;5055053;28;20256;-60
2024/01/20 01:23:47;;;;;;;2.20;2.10;;;;;-3.90;96882.00;;;;5057027;28;20691;-60
2024/01/20 01:26:16;;;;;;;3.10;2.70;;;;;-3.70;96895.00;;;;5054442;28;20210;-60
2024/01/20 01:28:43;;;;;;;5.80;5.03;;;;;-3.90;96881.00;;;;5054383;28;20199;-60
2024/01/20 01:31:12;;;;;;;2.43;2.23;;;;;-3.90;96882.00;;;;5055595;28;20195;-60
2024/01/20 01:33:40;;;;;;;2.87;2.70;;;;;-3.70;96885.00;;;;5055549;28;20305;-60
2024/01/20 01:36:08;;;;;;;3.07;2.87;;;;;-4.00;96884.00;;;;5055661;28;20203;-60
2024/01/20 01:38:35;;;;;;;2.97;2.73;;;;;-3.70;96893.00;;;;5056113;28;20191;-60
2024/01/20 01:41:05;;;;;;;2.53;2.43;;;;;-3.70;96897.00;;;;5053658;28;20222;-60
2024/01/20 01:43:35;;;;;;;6.63;2.77;;;;;-3.70;96882.00;;;;5055255;28;20227;-60
2024/01/20 01:46:03;;;;;;;2.47;2.30;;;;;-3.50;96882.00;;;;5056502;28;20212;-60
2024/01/20 01:48:31;;;;;;;3.97;3.37;;;;;-3.50;96884.00;;;;5056570;28;20201;-60
2024/01/20 01:50:59;;;;;;;5.30;3.17;;;;;-3.50;96882.00;;;;5055644;28;20191;-60
2024/01/20 01:53:27;;;;;;;4.73;3.37;;;;;-3.50;96899.00;;;;5054553;28;20215;-60
2024/01/20 01:56:00;;;;;;;5.23;3.27;;;;;-3.40;96882.00;;;;5056440;28;20207;-60
2024/01/20 01:58:28;;;;;;;3.53;2.50;;;;;-3.40;96893.00;;;;5056116;28;20190;-60
2024/01/20 02:00:58;;;;;;;5.47;3.23;;;;;-3.40;96880.00;;;;5053566;28;20219;-60
2024/01/20 02:03:26;;;;;;;1.53;1.47;;;;;-4.00;96883.00;;;;5054974;28;20651;-60
2024/01/20 02:05:53;;;;;;;3.83;2.97;;;;;-4.00;96890.00;;;;5053720;28;20202;-60
2024/01/20 02:08:23;;;;;;;3.30;2.90;;;;;-3.90;96883.00;;;;5054414;28;20205;-61
2024/01/20 02:10:51;;;;;;;3.00;2.80;;;;;-3.90;96876.00;;;;5054399;28;20529;-61
2024/01/20 02:13:20;;;;;;;2.57;2.43;;;;;-3.90;96882.00;;;;5056559;28;20214;-60
2024/01/20 02:15:50;;;;;;;8.53;4.20;;;;;-3.60;96881.00;;;;5056766;28;20203;-60
2024/01/20 02:18:23;;;;;;;4.83;2.80;;;;;-3.60;96877.00;;;;5053450;28;20198;-60
2024/01/20 02:20:51;;;;;;;13.37;3.10;;;;;-3.70;96884.00;;;;5056487;28;20256;-60
2024/01/20 02:23:23;;;;;;;2.33;2.10;;;;;-3.80;96884.00;;;;5056723;28;20288;-60
2024/01/20 02:25:51;;;;;;;4.40;3.27;;;;;-3.80;96889.00;;;;5053509;28;20217;-61
2024/01/20 02:28:18;;;;;;;5.07;3.17;;;;;-3.70;96889.00;;;;5054408;28;20195;-61
2024/01/20 02:30:46;;;;;;;3.40;3.10;;;;;-3.70;96885.00;;;;5056735;28;20288;-60
2024/01/20 02:33:14;;;;;;;7.50;3.17;;;;;-3.80;96880.00;;;;5052059;28;20733;-60
2024/01/20 02:35:41;;;;;;;4.33;3.93;;;;;-3.90;96885.00;;;;5054321;28;20194;-60
2024/01/20 02:38:10;;;;;;;2.83;2.63;;;;;-3.90;96885.00;;;;5055485;28;20199;-60
2024/01/20 02:40:38;;;;;;;2.90;2.70;;;;;-3.80;96896.00;;;;5054852;28;20203;-60
2024/01/20 02:43:06;;;;;;;2.90;2.30;;;;;-3.60;96890.00;;;;5053883;28;20610;-60
2024/01/20 02:45:33;;;;;;;3.20;2.87;;;;;-3.70;96904.00;;;;5053172;28;20194;-60
2024/01/20 02:48:04;;;;;;;5.73;2.97;;;;;-3.70;96920.00;;;;5055874;28;20675;-60
2024/01/20 02:50:32;;;;;;;2.93;2.73;;;;;-3.90;96918.00;;;;5055300;28;20192;-60
2024/01/20 02:53:05;;;;;;;3.23;2.93;;;;;-3.90;96907.00;;;;5056281;28;20218;-60
2024/01/20 02:55:38;;;;;;;3.00;2.80;;;;;-3.70;96914.00;;;;5057614;28;20187;-60
2024/01/20 02:58:05;;;;;;;2.93;2.60;;;;;-3.80;96904.00;;;;5054932;28;20187;-60
2024/01/20 03:00:34;;;;;;;3.20;2.87;;;;;-4.00;96904.00;;;;5056948;28;20204;-60
2024/01/20 03:03:01;;;;;;;2.33;2.23;;;;;-4.00;96899.00;;;;5056152;28;20579;-60
2024/01/20 03:05:29;;;;;;;3.97;3.67;;;;;-3.70;96914.00;;;;5055654;28;20193;-60
2024/01/20 03:07:56;;;;;;;3.73;3.17;;;;;-3.80;96901.00;;;;5054052;28;20587;-60
2024/01/20 03:10:24;;;;;;;3.23;2.47;;;;;-4.20;96905.00;;;;5057251;28;20203;-60
2024/01/20 03:12:52;;;;;;;4.90;3.93;;;;;-3.90;96908.00;;;;5054719;28;20215;-59
2024/01/20 03:15:25;;;;;;;3.40;3.17;;;;;-3.70;96911.00;;;;5055948;28;20205;-60
2024/01/20 03:17:53;;;;;;;2.97;2.77;;;;;-3.70;96914.00;;;;5055325;28;20179;-59
2024/01/20 03:20:20;;;;;;;4.17;3.70;;;;;-3.70;96913.00;;;;5053185;28;20195;-60
2024/01/20 03:22:47;;;;;;;2.53;2.43;;;;;-3.70;96909.00;;;;5052792;28;20625;-60
2024/01/20 03:25:18;;;;;;;2.83;2.63;;;;;-3.70;96907.00;;;;5055109;28;20208;-60
2024/01/20 03:27:46;;;;;;;2.63;2.53;;;;;-3.70;96918.00;;;;5054593;28;20187;-60
2024/01/20 03:30:15;;;;;;;5.03;3.00;;;;;-3.80;96923.00;;;;5055537;28;20194;-60
2024/01/20 03:32:43;;;;;;;5.23;2.73;;;;;-3.70;96935.00;;;;5056242;28;20219;-61
2024/01/20 03:35:10;;;;;;;3.30;3.07;;;;;-3.90;96927.00;;;;5058255;28;20206;-60
2024/01/20 03:37:38;;;;;;;3.93;3.50;;;;;-4.10;96921.00;;;;5056514;28;20197;-60
2024/01/20 03:40:08;;;;;;;6.50;4.27;;;;;-3.90;96879.00;;;;5060265;28;20199;-59
2024/01/20 03:42:38;;;;;;;5.43;2.50;;;;;-4.10;96923.00;;;;5060369;28;20226;-58
2024/01/20 03:45:06;;;;;;;3.40;3.07;;;;;-3.80;96928.00;;;;5058716;28;20253;-59
2024/01/20 03:47:36;;;;;;;4.40;3.20;;;;;-4.10;96930.00;;;;5055757;28;20698;-58
2024/01/20 03:50:09;;;;;;;7.73;3.67;;;;;-4.30;96935.00;;;;5057357;28;20195;-60
2024/01/20 03:52:39;;;;;;;2.77;2.57;;;;;-4.20;96926.00;;;;5059440;28;20257;-59
2024/01/20 03:55:07;;;;;;;4.23;3.83;;;;;-4.40;96929.00;;;;5059175;28;20517;-59
2024/01/20 03:57:35;;;;;;;3.47;2.77;;;;;-4.30;96927.00;;;;5056201;28;20685;-59
2024/01/20 04:00:04;;;;;;;2.77;2.57;;;;;-4.20;96931.00;;;;5056178;28;20202;-59
2024/01/20 04:02:35;;;;;;;3.23;2.90;;;;;-4.30;96882.00;;;;5059206;28;20260;-59
2024/01/20 04:05:03;;;;;;;3.30;3.00;;;;;-4.20;96935.00;;;;5058065;28;20197;-59
2024/01/20 04:07:32;;;;;;;1.83;1.73;;;;;-4.40;96925.00;;;;5056146;28;20725;-60
2024/01/20 04:09:59;;;;;;;2.17;2.00;;;;;-4.70;96937.00;;;;5056973;28;20193;-58
2024/01/20 04:12:27;;;;;;;2.87;2.67;;;;;-4.50;96933.00;;;;5055803;28;20689;-60
2024/01/20 04:14:55;;;;;;;4.60;3.40;;;;;-4.70;96945.00;;;;5056499;28;20196;-58
2024/01/20 04:17:26;;;;;;;3.37;3.07;;;;;-4.40;96939.00;;;;5057664;28;20243;-58
2024/01/20 04:19:58;;;;;;;3.20;3.00;;;;;-4.70;96931.00;;;;5057888;28;20224;-58
2024/01/20 04:22:26;;;;;;;5.00;4.27;;;;;-4.90;96931.00;;;;5059164;28;20225;-58
2024/01/20 04:24:53;;;;;;;4.97;3.80;;;;;-4.70;96934.00;;;;5057993;28;20194;-61
2024/01/20 04:27:20;;;;;;;2.87;2.67;;;;;-4.90;96932.00;;;;5055569;28;20202;-58
2024/01/20 04:29:55;;;;;;;4.93;3.63;;;;;-4.90;96949.00;;;;5057130;28;20185;-60
2024/01/20 04:32:27;;;;;;;2.93;2.63;;;;;-4.80;96946.00;;;;5058617;28;20298;-59
2024/01/20 04:34:56;;;;;;;4.00;3.00;;;;;-4.60;96943.00;;;;5058030;28;20185;-59
2024/01/20 04:37:25;;;;;;;4.27;2.80;;;;;-4.70;96945.00;;;;5057362;28;20194;-59
2024/01/20 04:39:53;;;;;;;3.27;2.97;;;;;-4.30;96954.00;;;;5056909;28;20195;-59
2024/01/20 04:42:22;;;;;;;3.13;2.83;;;;;-4.50;96949.00;;;;5055669;28;20225;-59
2024/01/20 04:44:49;;;;;;;4.40;4.00;;;;;-4.90;96953.00;;;;5057486;28;20561;-59
2024/01/20 04:47:19;;;;;;;3.60;2.57;;;;;-5.00;96959.00;;;;5058367;28;20556;-59
2024/01/20 04:49:48;;;;;;;5.27;3.27;;;;;-4.80;96955.00;;;;5058476;28;20199;-59
2024/01/20 04:52:17;;;;;;;5.27;4.77;;;;;-4.90;96951.00;;;;5059193;28;20224;-60
2024/01/20 04:54:47;;;;;;;3.30;3.00;;;;;-5.10;96949.00;;;;5060033;28;20196;-60
2024/01/20 04:57:15;;;;;;;4.33;3.93;;;;;-5.00;96957.00;;;;5056701;28;20550;-59
2024/01/20 04:59:42;;;;;;;2.13;2.03;;;;;-4.70;96958.00;;;;5058155;28;20197;-59
2024/01/20 05:02:10;;;;;;;8.07;4.57;;;;;-4.90;96958.00;;;;5058070;28;20222;-59
2024/01/20 05:04:38;;;;;;;4.07;3.70;;;;;-4.70;96962.00;;;;5058117;28;20193;-59
2024/01/20 05:07:09;;;;;;;1.67;1.60;;;;;-4.60;96961.00;;;;5059290;28;20246;-59
2024/01/20 05:09:41;;;;;;;3.43;2.40;;;;;-4.70;96967.00;;;;5060313;28;20188;-60
2024/01/20 05:12:09;;;;;;;3.77;3.47;;;;;-4.70;96967.00;;;;5058837;28;20214;-60
2024/01/20 05:14:37;;;;;;;3.07;2.87;;;;;-4.80;96966.00;;;;5056245;28;20195;-59
2024/01/20 05:17:05;;;;;;;3.53;3.17;;;;;-4.90;96965.00;;;;5054589;28;20195;-60
2024/01/20 05:19:34;;;;;;;6.17;2.83;;;;;-4.90;96966.00;;;;5055975;28;20189;-59
2024/01/20 05:22:01;;;;;;;2.80;2.60;;;;;-5.30;96961.00;;;;5055763;28;20262;-59
2024/01/20 05:24:34;;;;;;;4.33;2.43;;;;;-5.10;96950.00;;;;5057021;28;20194;-59
2024/01/20 05:27:05;;;;;;;3.10;2.90;;;;;-5.00;96960.00;;;;5055792;28;20179;-59
2024/01/20 05:29:33;;;;;;;6.20;3.60;;;;;-5.20;96970.00;;;;5060051;28;20186;-60
2024/01/20 05:32:03;;;;;;;6.37;4.20;;;;;-5.00;96962.00;;;;5060341;28;20214;-59
2024/01/20 05:34:30;;;;;;;3.97;3.57;;;;;-4.90;96968.00;;;;5059549;28;20189;-60
2024/01/20 05:37:01;;;;;;;3.13;2.93;;;;;-4.90;96967.00;;;;5059588;28;20229;-60
2024/01/20 05:39:29;;;;;;;3.73;3.43;;;;;-5.00;96968.00;;;;5058903;28;20528;-60
2024/01/20 05:41:56;;;;;;;5.50;4.07;;;;;-5.20;96991.00;;;;5055951;28;20228;-60
2024/01/20 05:44:25;;;;;;;2.83;2.27;;;;;-5.20;96987.00;;;;5053851;28;20196;-60
2024/01/20 05:46:55;;;;;;;2.87;2.67;;;;;-5.00;96989.00;;;;5055059;28;20198;-60
2024/01/20 05:49:23;;;;;;;5.13;3.57;;;;;-5.30;96993.00;;;;5056418;28;20640;-60
2024/01/20 05:51:50;;;;;;;6.50;3.20;;;;;-4.90;96992.00;;;;5058351;28;20691;-60
2024/01/20 05:54:18;;;;;;;4.20;3.27;;;;;-4.90;97009.00;;;;5055440;28;20192;-60
2024/01/20 05:56:45;;;;;;;4.20;3.17;;;;;-5.00;97002.00;;;;5056041;28;20196;-59
2024/01/20 05:59:13;;;;;;;2.33;2.23;;;;;-4.60;97010.00;;;;5057075;28;20188;-60
2024/01/20 06:01:42;;;;;;;3.67;2.87;;;;;-4.80;97002.00;;;;5054755;28;20204;-60
2024/01/20 06:04:13;;;;;;;4.20;3.80;;;;;-4.70;97008.00;;;;5054027;28;20224;-59
2024/01/20 06:06:40;;;;;;;4.77;3.27;;;;;-4.90;97000.00;;;;5054211;28;20246;-60
2024/01/20 06:09:08;;;;;;;4.10;3.80;;;;;-4.80;97006.00;;;;5055919;28;20201;-60
2024/01/20 06:11:35;;;;;;;3.90;3.10;;;;;-4.90;96997.00;;;;5055577;28;20678;-59
2024/01/20 06:14:05;;;;;;;3.73;3.43;;;;;-4.90;97002.00;;;;5054448;28;20605;-59
2024/01/20 06:16:33;;;;;;;4.10;3.70;;;;;-4.70;97001.00;;;;5054937;28;20279;-60
2024/01/20 06:19:05;;;;;;;5.30;3.97;;;;;-5.00;97009.00;;;;5054510;28;20216;-59
2024/01/20 06:21:36;;;;;;;3.97;3.57;;;;;-5.00;97008.00;;;;5054630;28;20187;-59
2024/01/20 06:24:04;;;;;;;3.80;3.50;;;;;-5.00;97022.00;;;;5054575;28;20255;-61
2024/01/20 06:26:32;;;;;;;5.97;4.40;;;;;-4.80;97023.00;;;;5053468;28;20212;-59
2024/01/20 06:28:59;;;;;;;3.40;1.97;;;;;-5.00;97020.00;;;;5054365;28;20216;-60
2024/01/20 06:31:28;;;;;;;3.27;3.07;;;;;-5.00;97014.00;;;;5057378;28;20208;-60
2024/01/20 06:33:56;;;;;;;4.07;3.73;;;;;-5.00;97012.00;;;;5053319;28;20188;-60
2024/01/20 06:36:25;;;;;;;3.20;2.90;;;;;-5.30;97024.00;;;;5054636;28;20660;-60
2024/01/20 06:38:53;;;;;;;2.20;2.00;;;;;-5.30;97017.00;;;;5054331;28;20537;-60
2024/01/20 06:41:24;;;;;;;2.10;2.00;;;;;-5.40;97026.00;;;;5056109;28;20211;-60
2024/01/20 06:43:51;;;;;;;4.20;2.53;;;;;-5.60;97028.00;;;;5056330;28;20202;-61
2024/01/20 06:46:19;;;;;;;2.30;2.10;;;;;-5.60;97020.00;;;;5055618;28;20706;-59
2024/01/20 06:48:46;;;;;;;5.63;3.63;;;;;-5.50;97029.00;;;;5055459;28;20203;-59
2024/01/20 06:51:15;;;;;;;3.33;2.90;;;;;-5.20;97031.00;;;;5054457;28;20292;-59
2024/01/20 06:53:45;;;;;;;7.13;4.60;;;;;-4.90;97025.00;;;;5054789;28;20214;-60
2024/01/20 06:56:14;;;;;;;3.70;3.40;;;;;-5.00;97040.00;;;;5055482;28;20192;-59
2024/01/20 06:58:42;;;;;;;3.43;3.17;;;;;-5.10;97041.00;;;;5053601;28;20281;-59
2024/01/20 07:01:10;;;;;;;7.93;3.93;;;;;-5.10;97042.00;;;;5053304;28;20200;-59
2024/01/20 07:03:38;;;;;;;4.30;3.87;;;;;-5.20;97036.00;;;;5052780;28;20225;-59
2024/01/20 07:06:07;;;;;;;8.43;5.20;;;;;-5.30;97047.00;;;;5061084;28;20195;-59
2024/01/20 07:08:35;;;;;;;4.53;2.93;;;;;-5.30;97044.00;;;;5059350;28;20567;-60
2024/01/20 07:11:09;;;;;;;9.00;3.63;;;;;-5.30;97049.00;;;;5061197;28;20202;-60
2024/01/20 07:13:39;;;;;;;4.00;3.70;;;;;-5.20;97041.00;;;;5061264;28;20221;-59
2024/01/20 07:16:14;;;;;;;3.10;2.90;;;;;-5.10;97051.00;;;;5061785;28;20181;-59
2024/01/20 07:18:42;;;;;;;2.20;2.10;;;;;-5.00;97041.00;;;;5059243;28;20186;-59
2024/01/20 07:21:13;;;;;;;7.70;3.83;;;;;-4.90;97047.00;;;;5057972;28;20203;-59
2024/01/20 07:23:41;;;;;;;3.93;3.50;;;;;-4.80;97052.00;;;;5058636;28;20271;-59
2024/01/20 07:26:09;;;;;;;2.57;2.47;;;;;-4.80;97048.00;;;;5058610;28;20193;-59
2024/01/20 07:28:37;;;;;;;3.97;3.67;;;;;-4.80;97055.00;;;;5058944;28;20650;-60
2024/01/20 07:31:07;;;;;;;4.97;4.47;;;;;-4.90;97050.00;;;;5056952;28;20198;-59
2024/01/20 07:33:35;;;;;;;4.40;4.00;;;;;-4.80;97059.00;;;;5058705;28;20210;-59
2024/01/20 07:36:07;;;;;;;3.43;3.13;;;;;-4.80;97065.00;;;;5058878;28;20594;-60
2024/01/20 07:38:35;;;;;;;8.27;4.27;;;;;-4.70;97070.00;;;;5058071;28;20195;-59
2024/01/20 07:41:02;;;;;;;5.20;4.80;;;;;-4.80;97070.00;;;;5058970;28;20210;-59
2024/01/20 07:43:31;;;;;;;2.73;2.53;;;;;-5.00;97086.00;;;;5058279;28;20225;-59
2024/01/20 07:45:59;;;;;;;3.80;3.43;;;;;-5.10;97082.00;;;;5058806;28;20237;-59
2024/01/20 07:48:27;;;;;;;5.30;4.80;;;;;-5.00;97081.00;;;;5058554;28;20553;-59
2024/01/20 07:50:57;;;;;;;3.03;2.70;;;;;-5.20;97092.00;;;;5058703;28;20198;-59
2024/01/20 07:53:24;;;;;;;2.47;2.30;;;;;-5.10;97083.00;;;;5058340;28;20210;-59
2024/01/20 07:55:52;;;;;;;5.30;3.87;;;;;-5.00;97081.00;;;;5058294;28;20193;-59
2024/01/20 07:58:19;;;;;;;3.97;3.67;;;;;-4.90;97095.00;;;;5058835;28;20193;-60
2024/01/20 08:00:48;;;;;;;3.30;3.03;;;;;-4.80;97084.00;;;;5058753;28;20193;-59
2024/01/20 08:03:15;;;;;;;2.87;2.67;;;;;-4.70;97086.00;;;;5054511;28;20580;-59
2024/01/20 08:05:45;;;;;;;2.10;2.00;;;;;-4.60;97057.00;;;;5056242;28;20198;-59
2024/01/20 08:08:13;;;;;;;4.77;4.17;;;;;-4.60;97099.00;;;;5054896;28;20199;-59
2024/01/20 08:10:40;;;;;;;3.90;3.50;;;;;-4.50;97097.00;;;;5056377;28;20202;-59
2024/01/20 08:13:08;;;;;;;3.40;3.20;;;;;-4.50;97104.00;;;;5056400;28;20575;-59
2024/01/20 08:15:35;;;;;;;2.03;1.90;;;;;-4.40;97103.00;;;;5056722;28;20386;-60
2024/01/20 08:18:04;;;;;;;4.63;4.23;;;;;-4.30;97098.00;;;;5055908;28;20191;-60
2024/01/20 08:20:31;;;;;;;5.17;3.20;;;;;-4.30;97090.00;;;;5055659;28;20195;-59
2024/01/20 08:22:59;;;;;;;4.73;3.30;;;;;-4.20;97089.00;;;;5056033;28;20313;-60
2024/01/20 08:25:29;;;;;;;4.77;3.10;;;;;-4.20;97089.00;;;;5055787;28;20206;-59
2024/01/20 08:27:55;;;;;;;3.10;2.90;;;;;-4.20;97097.00;;;;5055850;28;20234;-61
2024/01/20 08:30:23;;;;;;;7.53;4.80;;;;;-4.10;97097.00;;;;5055365;28;20659;-60
2024/01/20 08:32:50;;;;;;;3.13;2.77;;;;;-4.00;97100.00;;;;5055349;28;20260;-61
2024/01/20 08:35:19;;;;;;;2.57;2.37;;;;;-4.00;97106.00;;;;5055119;28;20263;-60
2024/01/20 08:37:47;;;;;;;2.97;2.77;;;;;-3.90;97102.00;;;;5055169;28;20532;-60
2024/01/20 08:40:14;;;;;;;3.20;2.90;;;;;-3.80;97112.00;;;;5055754;28;20202;-60
2024/01/20 08:42:42;;;;;;;3.53;3.30;;;;;-3.70;97120.00;;;;5054831;28;20310;-61
2024/01/20 08:45:10;;;;;;;4.57;4.07;;;;;-4.00;97125.00;;;;5055348;28;20211;-61
2024/01/20 08:47:38;;;;;;;2.83;2.63;;;;;-3.90;97128.00;;;;5055103;28;20559;-62
2024/01/20 08:50:06;;;;;;;2.93;2.73;;;;;-4.00;97125.00;;;;5054960;28;20245;-62
2024/01/20 08:52:34;;;;;;;4.17;2.07;;;;;-3.90;97120.00;;;;5055492;28;20206;-61
2024/01/20 08:55:02;;;;;;;6.17;4.60;;;;;-3.80;97129.00;;;;5054964;28;20190;-61
2024/01/20 08:57:32;;;;;;;2.50;2.27;;;;;-3.70;97127.00;;;;5054909;28;20195;-61
2024/01/20 09:00:00;;;;;;;3.77;3.47;;;;;-3.70;97147.00;;;;5054776;28;20274;-61
2024/01/20 09:02:28;;;;;;;5.70;3.30;;;;;-3.50;97144.00;;;;5054564;28;20239;-61
2024/01/20 09:04:55;;;;;;;4.33;2.73;;;;;-3.40;97143.00;;;;5055082;28;20218;-61
2024/01/20 09:07:23;;;;;;;3.30;3.10;;;;;-3.40;97128.00;;;;5053358;28;20205;-61
2024/01/20 09:09:52;;;;;;;5.93;4.17;;;;;-3.20;97138.00;;;;5055035;28;20225;-60
2024/01/20 09:12:20;;;;;;;3.03;2.83;;;;;-3.20;97129.00;;;;5054513;28;20225;-60
2024/01/20 09:14:47;;;;;;;4.20;3.57;;;;;-3.10;97138.00;;;;5054424;28;20219;-59
2024/01/20 09:17:15;;;;;;;5.67;3.07;;;;;-3.00;97143.00;;;;5052954;28;20197;-60
2024/01/20 09:19:42;;;;;;;3.27;2.73;;;;;-2.80;97136.00;;;;5054121;28;20257;-60
2024/01/20 09:22:10;;;;;;;3.60;3.30;;;;;-2.70;97142.00;;;;5054258;28;20706;-60
2024/01/20 09:24:37;;;;;;;7.57;2.67;;;;;-2.70;97145.00;;;;5054540;28;20254;-59
2024/01/20 09:27:06;;;;;;;5.80;5.27;;;;;-2.70;97155.00;;;;5053988;28;20191;-59
2024/01/20 09:29:34;;;;;;;3.13;2.93;;;;;-2.50;97157.00;;;;5054798;28;20551;-60
2024/01/20 09:32:01;;;;;;;3.33;2.47;;;;;-2.50;97160.00;;;;5053091;28;20230;-60
2024/01/20 09:34:29;;;;;;;2.63;2.43;;;;;-2.40;97147.00;;;;5054336;28;20614;-59
2024/01/20 09:36:56;;;;;;;3.57;3.27;;;;;-2.50;97147.00;;;;5054766;28;20659;-59
2024/01/20 09:39:24;;;;;;;4.37;3.17;;;;;-2.40;97153.00;;;;5054159;28;20204;-59
2024/01/20 09:41:52;;;;;;;5.60;3.23;;;;;-2.30;97151.00;;;;5054117;28;20216;-59
2024/01/20 09:44:21;;;;;;;6.47;4.00;;;;;-2.30;97166.00;;;;5052631;28;20215;-60
2024/01/20 09:46:49;;;;;;;4.10;3.70;;;;;-2.10;97150.00;;;;5054679;28;20226;-59
2024/01/20 09:49:17;;;;;;;5.43;4.47;;;;;-2.10;97171.00;;;;5054045;28;20188;-60
2024/01/20 09:51:50;;;;;;;4.40;3.73;;;;;-2.10;97175.00;;;;5054399;28;20192;-60
2024/01/20 09:54:21;;;;;;;2.70;2.50;;;;;-1.90;97177.00;;;;5054529;28;20187;-59
2024/01/20 09:56:48;;;;;;;4.40;2.83;;;;;-1.40;97181.00;;;;5054871;28;20268;-59
2024/01/20 09:59:17;;;;;;;3.63;3.33;;;;;-1.30;97183.00;;;;5054297;28;20195;-59
2024/01/20 10:01:49;;;;;;;7.50;3.97;;;;;-1.00;97176.00;;;;5053958;28;20220;-60
2024/01/20 10:04:18;;;;;;;4.03;3.73;;;;;-0.80;97169.00;;;;5054119;28;20207;-59
2024/01/20 10:06:45;;;;;;;4.93;4.47;;;;;-0.80;97166.00;;;;5053750;28;20279;-59
2024/01/20 10:09:13;;;;;;;4.63;3.90;;;;;-1.10;97179.00;;;;5053794;28;20199;-60
2024/01/20 10:11:42;;;;;;;5.90;4.27;;;;;-1.20;97190.00;;;;5053719;28;20205;-60
2024/01/20 10:14:10;;;;;;;1.83;1.73;;;;;-1.30;97190.00;;;;5053525;28;20188;-59
2024/01/20 10:16:40;;;;;;;5.50;4.13;;;;;-1.40;97180.00;;;;5054011;28;20195;-59
2024/01/20 10:19:09;;;;;;;2.30;2.20;;;;;-1.40;97192.00;;;;5054100;28;20196;-59
2024/01/20 10:21:40;;;;;;;6.10;2.60;;;;;-1.40;97191.00;;;;5053442;28;20196;-59
2024/01/20 10:24:08;;;;;;;4.77;4.07;;;;;-1.30;97192.00;;;;5053637;28;20220;-59
2024/01/20 10:26:42;;;;;;;4.20;3.33;;;;;-1.50;97187.00;;;;5053725;28;20610;-60
2024/01/20 10:29:10;;;;;;;4.03;3.67;;;;;-1.30;97197.00;;;;5052689;28;20180;-60
2024/01/20 10:31:38;;;;;;;3.67;2.77;;;;;-1.40;97201.00;;;;5054118;28;20200;-60
2024/01/20 10:34:05;;;;;;;3.33;3.03;;;;;-1.30;97199.00;;;;5054742;28;20210;-59
2024/01/20 10:36:34;;;;;;;6.70;3.93;;;;;-1.40;97190.00;;;;5053381;28;20261;-58
2024/01/20 10:39:04;;;;;;;5.03;2.87;;;;;-1.20;97194.00;;;;5053990;28;20198;-58
2024/01/20 10:41:34;;;;;;;2.90;2.70;;;;;-1.00;97195.00;;;;5057102;28;20253;-58
2024/01/20 10:44:03;;;;;;;3.77;3.40;;;;;-0.90;97205.00;;;;5057669;28;20341;-60
2024/01/20 10:46:34;;;;;;;3.00;2.77;;;;;-1.10;97195.00;;;;5057515;28;20192;-59
2024/01/20 10:49:04;;;;;;;4.37;3.17;;;;;-1.10;97191.00;;;;5057897;28;20263;-59
2024/01/20 10:51:34;;;;;;;2.87;2.67;;;;;-1.10;97193.00;;;;5055808;28;20277;-59
2024/01/20 10:54:06;;;;;;;2.47;2.27;;;;;-0.90;97180.00;;;;5057508;28;20700;-59
2024/01/20 10:56:35;;;;;;;6.43;4.03;;;;;-1.10;97180.00;;;;5057455;28;20187;-59
2024/01/20 10:59:09;;;;;;;3.17;2.87;;;;;-1.10;97183.00;;;;5057359;28;20200;-59
2024/01/20 11:01:37;;;;;;;4.90;3.40;;;;;-1.10;97179.00;;;;5056863;28;20184;-59
2024/01/20 11:04:05;;;;;;;6.93;3.67;;;;;-1.00;97180.00;;;;5057069;28;20426;-59
2024/01/20 11:06:35;;;;;;;5.93;3.50;;;;;-1.00;97182.00;;;;5056909;28;20223;-59
2024/01/20 11:09:03;;;;;;;4.23;3.27;;;;;-0.50;97180.00;;;;5057089;28;20267;-59
2024/01/20 11:11:34;;;;;;;3.80;2.67;;;;;0.00;97183.00;;;;5056979;28;20282;-59
2024/01/20 11:14:02;;;;;;;3.47;3.20;;;;;0.00;97180.00;;;;5057464;28;20177;-59
2024/01/20 11:16:32;;;;;;;3.73;3.43;;;;;0.20;97166.00;;;;5056936;28;20196;-59
2024/01/20 11:19:08;;;;;;;4.60;2.97;;;;;0.50;97165.00;;;;5056917;28;20196;-59
2024/01/20 11:21:37;;;;;;;3.27;2.83;;;;;1.30;97159.00;;;;5056817;28;20252;-59
2024/01/20 11:24:05;;;;;;;4.03;2.97;;;;;1.60;97148.00;;;;5055454;28;20231;-59
2024/01/20 11:26:33;;;;;;;3.53;3.23;;;;;2.10;97135.00;;;;5056955;28;20272;-60
2024/01/20 11:29:03;;;;;;;2.30;2.13;;;;;2.60;97122.00;;;;5056518;28;20693;-59
2024/01/20 11:31:31;;;;;;;4.27;3.23;;;;;3.30;97131.00;;;;5055063;28;20206;-59
2024/01/20 11:33:59;;;;;;;4.40;4.00;;;;;3.50;97117.00;;;;5055535;28;20247;-59
2024/01/20 11:36:29;;;;;;;3.37;3.07;;;;;4.10;97123.00;;;;5056997;28;20233;-59
2024/01/20 11:38:59;;;;;;;3.90;3.00;;;;;4.40;97122.00;;;;5056783;28;20678;-59
2024/01/20 11:41:27;;;;;;;2.93;2.63;;;;;4.90;97115.00;;;;5056265;28;20203;-59
2024/01/20 11:43:55;;;;;;;4.10;2.07;;;;;5.40;97111.00;;;;5056144;28;20605;-59
2024/01/20 11:46:23;;;;;;;2.63;2.47;;;;;5.50;97096.00;;;;5056473;28;20203;-59
2024/01/20 11:48:51;;;;;;;3.13;2.93;;;;;6.10;97094.00;;;;5055345;28;20298;-59
2024/01/20 11:51:21;;;;;;;3.40;3.10;;;;;6.70;97086.00;;;;5054145;28;20199;-59
2024/01/20 11:53:49;;;;;;;2.87;2.57;;;;;7.50;97065.00;;;;5056274;28;20251;-59
2024/01/20 11:56:18;;;;;;;4.07;3.67;;;;;9.20;97060.00;;;;5055737;28;20199;-59
2024/01/20 11:58:46;;;;;;;2.47;2.27;;;;;10.10;97049.00;;;;5055556;28;20203;-59
2024/01/20 12:01:14;;;;;;;2.53;2.30;;;;;10.30;97040.00;;;;5055734;28;20211;-59
2024/01/20 12:03:42;;;;;;;2.20;2.03;;;;;10.60;97036.00;;;;5055390;28;20220;-60
2024/01/20 12:06:10;;;;;;;1.77;1.67;;;;;11.50;97031.00;;;;5055728;28;20279;-60
2024/01/20 12:08:40;;;;;;;1.40;1.30;;;;;10.90;97030.00;;;;5055501;28;20226;-60
2024/01/20 12:11:08;;;;;;;2.43;2.27;;;;;11.50;97037.00;;;;5055497;28;20193;-60
2024/01/20 12:13:38;;;;;;;6.50;2.30;;;;;12.70;97032.00;;;;5055796;28;20646;-60
2024/01/20 12:16:06;;;;;;;2.37;2.17;;;;;14.70;97034.00;;;;5055316;28;20533;-60
2024/01/20 12:18:37;;;;;;;2.53;2.37;;;;;15.50;97029.00;;;;5055150;28;20188;-60
2024/01/20 12:21:04;;;;;;;1.50;1.47;;;;;16.30;97031.00;;;;5055755;28;20191;-59
2024/01/20 12:23:32;;;;;;;3.43;3.13;;;;;17.50;97022.00;;;;5055433;28;20215;-60
2024/01/20 12:26:00;;;;;;;5.83;2.73;;;;;18.30;97029.00;;;;5055738;28;20275;-61